sensor_id;sensor_type;location;lat;lon;timestamp;temperature;humidity
12223;DHT22;6174;49.058;8.524;2023-07-22T06:02:13;16.80;99.90
12223;DHT22;6174;49.058;8.524;2023-07-22T06:04:40;16.80;99.90
12223;DHT22;6174;49.058;8.524;2023-07-22T06:07:07;16.90;99.90
12223;DHT22;6174;49.058;8.524;2023-07-22T06:09:34;16.90;99.90
12223;DHT22;6174;49.058;8.524;2023-07-22T06:12:01;17.00;99.90
12223;DHT22;6174;49.058;8.524;2023-07-22T06:14:28;17.00;99.90
12223;DHT22;6174;49.058;8.524;2023-07-22T06:16:55;17.10;99.90
12223;DHT22;6174;49.058;8.524;2023-07-22T06:19:24;17.00;99.90
12223;DHT22;6174;49.058;8.524;2023-07-22T06:21:51;17.20;99.90
12223;DHT22;6174;49.058;8.524;2023-07-22T06:24:18;17.30;99.90
12223;DHT22;6174;49.058;8.524;2023-07-22T06:26:44;17.30;99.90
12223;DHT22;6174;49.058;8.524;2023-07-22T06:29:11;17.30;99.90
12223;DHT22;6174;49.058;8.524;2023-07-22T06:31:38;17.40;99.90
12223;DHT22;6174;49.058;8.524;2023-07-22T06:34:05;17.40;99.90
12223;DHT22;6174;49.058;8.524;2023-07-22T06:36:33;17.40;99.90
12223;DHT22;6174;49.058;8.524;2023-07-22T06:39:00;17.40;99.90
12223;DHT22;6174;49.058;8.524;2023-07-22T06:41:26;17.40;99.90
12223;DHT22;6174;49.058;8.524;2023-07-22T06:43:53;17.50;99.90
12223;DHT22;6174;49.058;8.524;2023-07-22T06:46:20;17.50;99.90
12223;DHT22;6174;49.058;8.524;2023-07-22T06:48:47;17.60;99.90
12223;DHT22;6174;49.058;8.524;2023-07-22T06:51:14;17.60;99.90
12223;DHT22;6174;49.058;8.524;2023-07-22T06:53:42;17.60;99.90
12223;DHT22;6174;49.058;8.524;2023-07-22T06:56:09;17.60;99.90
12223;DHT22;6174;49.058;8.524;2023-07-22T06:58:36;17.70;99.90
12223;DHT22;6174;49.058;8.524;2023-07-22T07:01:02;17.80;99.90
12223;DHT22;6174;49.058;8.524;2023-07-22T07:03:29;17.90;99.90
12223;DHT22;6174;49.058;8.524;2023-07-22T07:05:56;18.00;99.90
12223;DHT22;6174;49.058;8.524;2023-07-22T07:08:23;18.10;99.90
12223;DHT22;6174;49.058;8.524;2023-07-22T07:10:51;18.10;99.90
12223;DHT22;6174;49.058;8.524;2023-07-22T07:13:18;18.10;99.90
12223;DHT22;6174;49.058;8.524;2023-07-22T07:15:47;18.40;99.90
12223;DHT22;6174;49.058;8.524;2023-07-22T07:18:15;18.40;99.90
12223;DHT22;6174;49.058;8.524;2023-07-22T07:20:43;18.50;99.90
12223;DHT22;6174;49.058;8.524;2023-07-22T07:23:10;18.50;99.90
12223;DHT22;6174;49.058;8.524;2023-07-22T07:25:37;18.50;99.90
12223;DHT22;6174;49.058;8.524;2023-07-22T07:28:05;18.60;99.90
12223;DHT22;6174;49.058;8.524;2023-07-22T07:30:32;18.70;99.90
12223;DHT22;6174;49.058;8.524;2023-07-22T07:32:58;18.90;99.70
12223;DHT22;6174;49.058;8.524;2023-07-22T07:35:25;19.00;99.10
12223;DHT22;6174;49.058;8.524;2023-07-22T07:37:52;19.20;98.30
12223;DHT22;6174;49.058;8.524;2023-07-22T07:40:19;19.20;98.30
12223;DHT22;6174;49.058;8.524;2023-07-22T07:42:45;19.30;97.90
12223;DHT22;6174;49.058;8.524;2023-07-22T07:45:14;19.40;97.50
12223;DHT22;6174;49.058;8.524;2023-07-22T07:47:40;19.50;97.40
12223;DHT22;6174;49.058;8.524;2023-07-22T07:50:08;19.70;97.10
12223;DHT22;6174;49.058;8.524;2023-07-22T07:52:35;19.70;95.60
12223;DHT22;6174;49.058;8.524;2023-07-22T07:55:04;19.80;94.80
12223;DHT22;6174;49.058;8.524;2023-07-22T07:57:31;20.10;95.00
12223;DHT22;6174;49.058;8.524;2023-07-22T07:59:58;20.30;93.60
12223;DHT22;6174;49.058;8.524;2023-07-22T08:02:26;20.30;93.20
12223;DHT22;6174;49.058;8.524;2023-07-22T08:04:53;20.50;92.80
12223;DHT22;6174;49.058;8.524;2023-07-22T08:07:20;20.50;91.80
12223;DHT22;6174;49.058;8.524;2023-07-22T08:09:47;20.50;91.40
12223;DHT22;6174;49.058;8.524;2023-07-22T08:12:15;20.50;91.30
12223;DHT22;6174;49.058;8.524;2023-07-22T08:14:42;20.40;91.40
12223;DHT22;6174;49.058;8.524;2023-07-22T08:17:09;20.40;91.50
12223;DHT22;6174;49.058;8.524;2023-07-22T08:19:37;20.30;91.80
12223;DHT22;6174;49.058;8.524;2023-07-22T08:22:04;20.30;92.20
12223;DHT22;6174;49.058;8.524;2023-07-22T08:24:31;20.40;92.60
12223;DHT22;6174;49.058;8.524;2023-07-22T08:26:58;20.50;92.40
12223;DHT22;6174;49.058;8.524;2023-07-22T08:29:25;20.50;92.60
12223;DHT22;6174;49.058;8.524;2023-07-22T08:31:52;20.50;92.60
12223;DHT22;6174;49.058;8.524;2023-07-22T08:34:18;20.60;92.90
12223;DHT22;6174;49.058;8.524;2023-07-22T08:36:47;20.80;92.70
12223;DHT22;6174;49.058;8.524;2023-07-22T08:39:14;20.80;92.50
12223;DHT22;6174;49.058;8.524;2023-07-22T08:41:44;20.90;92.50
12223;DHT22;6174;49.058;8.524;2023-07-22T08:44:16;20.90;91.60
12223;DHT22;6174;49.058;8.524;2023-07-22T08:46:46;21.00;91.90
12223;DHT22;6174;49.058;8.524;2023-07-22T08:49:13;21.10;91.20
12223;DHT22;6174;49.058;8.524;2023-07-22T08:51:41;21.00;90.80
12223;DHT22;6174;49.058;8.524;2023-07-22T08:54:10;21.00;91.10
12223;DHT22;6174;49.058;8.524;2023-07-22T08:56:38;20.90;91.20
12223;DHT22;6174;49.058;8.524;2023-07-22T08:59:05;20.90;91.70
12223;DHT22;6174;49.058;8.524;2023-07-22T09:01:34;20.90;91.80
12223;DHT22;6174;49.058;8.524;2023-07-22T09:04:01;21.00;91.30
12223;DHT22;6174;49.058;8.524;2023-07-22T09:06:28;21.00;91.40
12223;DHT22;6174;49.058;8.524;2023-07-22T09:08:55;21.00;90.80
12223;DHT22;6174;49.058;8.524;2023-07-22T09:11:24;21.10;90.90
12223;DHT22;6174;49.058;8.524;2023-07-22T09:13:52;21.30;90.20
12223;DHT22;6174;49.058;8.524;2023-07-22T09:16:20;21.30;89.70
12223;DHT22;6174;49.058;8.524;2023-07-22T09:18:47;21.50;89.00
12223;DHT22;6174;49.058;8.524;2023-07-22T09:21:14;21.50;87.20
12223;DHT22;6174;49.058;8.524;2023-07-22T09:23:41;21.70;86.10
12223;DHT22;6174;49.058;8.524;2023-07-22T09:26:12;21.80;84.70
12223;DHT22;6174;49.058;8.524;2023-07-22T09:28:54;21.90;84.60
12223;DHT22;6174;49.058;8.524;2023-07-22T09:31:22;22.00;83.60
12223;DHT22;6174;49.058;8.524;2023-07-22T09:33:49;22.10;84.50
12223;DHT22;6174;49.058;8.524;2023-07-22T09:36:17;22.20;85.60
12223;DHT22;6174;49.058;8.524;2023-07-22T09:38:43;22.40;83.20
12223;DHT22;6174;49.058;8.524;2023-07-22T09:41:10;22.50;81.50
12223;DHT22;6174;49.058;8.524;2023-07-22T09:43:39;22.50;80.90
12223;DHT22;6174;49.058;8.524;2023-07-22T09:46:08;22.50;82.10
12223;DHT22;6174;49.058;8.524;2023-07-22T09:48:42;22.60;80.00
12223;DHT22;6174;49.058;8.524;2023-07-22T09:51:14;22.50;80.00
12223;DHT22;6174;49.058;8.524;2023-07-22T09:53:45;22.50;81.80
12223;DHT22;6174;49.058;8.524;2023-07-22T09:56:12;22.50;81.20
12223;DHT22;6174;49.058;8.524;2023-07-22T09:58:40;22.50;82.40
12223;DHT22;6174;49.058;8.524;2023-07-22T10:01:09;22.40;80.90
12223;DHT22;6174;49.058;8.524;2023-07-22T10:03:37;22.40;81.70
12223;DHT22;6174;49.058;8.524;2023-07-22T10:06:05;22.20;83.00
12223;DHT22;6174;49.058;8.524;2023-07-22T10:08:34;22.30;82.90
12223;DHT22;6174;49.058;8.524;2023-07-22T10:11:05;22.20;82.40
12223;DHT22;6174;49.058;8.524;2023-07-22T10:13:32;22.10;82.20
12223;DHT22;6174;49.058;8.524;2023-07-22T10:16:00;22.00;83.00
12223;DHT22;6174;49.058;8.524;2023-07-22T10:18:29;22.00;83.90
12223;DHT22;6174;49.058;8.524;2023-07-22T10:20:57;22.00;84.30
12223;DHT22;6174;49.058;8.524;2023-07-22T10:23:25;21.90;85.70
12223;DHT22;6174;49.058;8.524;2023-07-22T10:25:53;21.90;84.00
12223;DHT22;6174;49.058;8.524;2023-07-22T10:28:21;22.00;84.40
12223;DHT22;6174;49.058;8.524;2023-07-22T10:30:49;22.10;82.60
12223;DHT22;6174;49.058;8.524;2023-07-22T10:33:16;22.30;82.70
12223;DHT22;6174;49.058;8.524;2023-07-22T10:36:03;22.50;83.70
12223;DHT22;6174;49.058;8.524;2023-07-22T10:38:31;22.90;77.50
12223;DHT22;6174;49.058;8.524;2023-07-22T10:40:58;23.10;75.70
12223;DHT22;6174;49.058;8.524;2023-07-22T10:43:26;23.20;76.30
12223;DHT22;6174;49.058;8.524;2023-07-22T10:45:54;23.40;77.00
12223;DHT22;6174;49.058;8.524;2023-07-22T10:48:23;23.70;71.50
12223;DHT22;6174;49.058;8.524;2023-07-22T10:50:54;23.90;70.30
12223;DHT22;6174;49.058;8.524;2023-07-22T10:53:28;24.00;69.10
12223;DHT22;6174;49.058;8.524;2023-07-22T10:56:13;24.10;68.00
12223;DHT22;6174;49.058;8.524;2023-07-22T10:58:59;24.00;67.00
12223;DHT22;6174;49.058;8.524;2023-07-22T11:01:35;24.10;67.50
12223;DHT22;6174;49.058;8.524;2023-07-22T11:04:06;24.20;70.20
12223;DHT22;6174;49.058;8.524;2023-07-22T11:06:35;24.30;70.20
12223;DHT22;6174;49.058;8.524;2023-07-22T11:09:02;24.30;65.70
12223;DHT22;6174;49.058;8.524;2023-07-22T11:11:36;24.30;67.20
12223;DHT22;6174;49.058;8.524;2023-07-22T11:14:16;24.40;68.00
12223;DHT22;6174;49.058;8.524;2023-07-22T11:16:45;24.50;66.70
12223;DHT22;6174;49.058;8.524;2023-07-22T11:19:12;24.50;67.20
12223;DHT22;6174;49.058;8.524;2023-07-22T11:21:41;24.50;67.50
12223;DHT22;6174;49.058;8.524;2023-07-22T11:24:08;24.40;66.00
12223;DHT22;6174;49.058;8.524;2023-07-22T11:26:35;24.30;67.20
12223;DHT22;6174;49.058;8.524;2023-07-22T11:29:02;24.20;66.90
12223;DHT22;6174;49.058;8.524;2023-07-22T11:31:33;24.10;67.80
12223;DHT22;6174;49.058;8.524;2023-07-22T11:34:00;24.10;66.90
12223;DHT22;6174;49.058;8.524;2023-07-22T11:36:27;24.00;68.80
12223;DHT22;6174;49.058;8.524;2023-07-22T11:39:01;24.00;67.50
12223;DHT22;6174;49.058;8.524;2023-07-22T11:41:29;24.00;69.30
12223;DHT22;6174;49.058;8.524;2023-07-22T11:43:57;24.00;71.10
12223;DHT22;6174;49.058;8.524;2023-07-22T11:49:22;24.00;70.40
12223;DHT22;6174;49.058;8.524;2023-07-22T12:22:05;24.00;68.20
12223;DHT22;6174;49.058;8.524;2023-07-22T12:27:58;24.20;67.50
12223;DHT22;6174;49.058;8.524;2023-07-22T12:49:10;24.90;62.30
12223;DHT22;6174;49.058;8.524;2023-07-22T12:51:41;25.00;62.70
12223;DHT22;6174;49.058;8.524;2023-07-22T13:08:27;25.60;58.20
12223;DHT22;6174;49.058;8.524;2023-07-22T13:11:35;25.60;59.80
12223;DHT22;6174;49.058;8.524;2023-07-22T13:14:33;25.60;59.80
12223;DHT22;6174;49.058;8.524;2023-07-22T13:17:06;25.70;59.80
12223;DHT22;6174;49.058;8.524;2023-07-22T13:19:38;25.80;59.90
12223;DHT22;6174;49.058;8.524;2023-07-22T13:22:06;25.90;59.60
12223;DHT22;6174;49.058;8.524;2023-07-22T13:24:37;25.90;57.90
12223;DHT22;6174;49.058;8.524;2023-07-22T13:27:19;25.80;59.50
12223;DHT22;6174;49.058;8.524;2023-07-22T13:33:03;25.40;58.40
12223;DHT22;6174;49.058;8.524;2023-07-22T13:38:31;25.60;57.70
12223;DHT22;6174;49.058;8.524;2023-07-22T13:41:30;25.60;57.50
12223;DHT22;6174;49.058;8.524;2023-07-22T13:44:38;25.60;56.60
12223;DHT22;6174;49.058;8.524;2023-07-22T13:47:22;25.70;57.70
12223;DHT22;6174;49.058;8.524;2023-07-22T13:50:24;25.80;57.00
12223;DHT22;6174;49.058;8.524;2023-07-22T14:06:47;26.10;57.50
12223;DHT22;6174;49.058;8.524;2023-07-22T14:17:47;25.80;57.80
12223;DHT22;6174;49.058;8.524;2023-07-22T14:26:55;26.10;56.50
12223;DHT22;6174;49.058;8.524;2023-07-22T14:29:34;26.20;54.70
12223;DHT22;6174;49.058;8.524;2023-07-22T14:32:07;26.20;55.50
12223;DHT22;6174;49.058;8.524;2023-07-22T14:34:38;26.10;54.90
12223;DHT22;6174;49.058;8.524;2023-07-22T14:47:52;25.70;58.10
12223;DHT22;6174;49.058;8.524;2023-07-22T14:50:43;25.90;56.40
12223;DHT22;6174;49.058;8.524;2023-07-22T14:53:49;26.00;56.10
12223;DHT22;6174;49.058;8.524;2023-07-22T14:57:00;25.90;56.40
12223;DHT22;6174;49.058;8.524;2023-07-22T15:00:14;26.00;56.60
12223;DHT22;6174;49.058;8.524;2023-07-22T15:10:02;26.00;54.80
12223;DHT22;6174;49.058;8.524;2023-07-22T15:12:56;26.10;54.40
12223;DHT22;6174;49.058;8.524;2023-07-22T15:15:56;25.90;54.70
12223;DHT22;6174;49.058;8.524;2023-07-22T15:19:35;25.90;55.50
12223;DHT22;6174;49.058;8.524;2023-07-22T15:25:23;26.20;54.70
12223;DHT22;6174;49.058;8.524;2023-07-22T15:27:54;26.20;53.50
12223;DHT22;6174;49.058;8.524;2023-07-22T15:30:21;26.20;52.90
12223;DHT22;6174;49.058;8.524;2023-07-22T15:33:13;26.20;54.00
12223;DHT22;6174;49.058;8.524;2023-07-22T15:36:14;26.20;54.00
12223;DHT22;6174;49.058;8.524;2023-07-22T15:42:45;26.20;53.70
12223;DHT22;6174;49.058;8.524;2023-07-22T15:45:37;26.20;54.30
12223;DHT22;6174;49.058;8.524;2023-07-22T15:48:29;26.20;53.90
12223;DHT22;6174;49.058;8.524;2023-07-22T15:50:56;26.20;52.90
12223;DHT22;6174;49.058;8.524;2023-07-22T15:53:24;26.20;52.80
12223;DHT22;6174;49.058;8.524;2023-07-22T15:55:57;26.10;53.90
12223;DHT22;6174;49.058;8.524;2023-07-22T15:58:30;26.20;54.60
12223;DHT22;6174;49.058;8.524;2023-07-22T16:00:58;26.20;53.40
12223;DHT22;6174;49.058;8.524;2023-07-22T16:03:30;26.20;53.50
12223;DHT22;6174;49.058;8.524;2023-07-22T16:06:05;26.10;53.30
12223;DHT22;6174;49.058;8.524;2023-07-22T16:08:32;26.10;53.90
12223;DHT22;6174;49.058;8.524;2023-07-22T16:18:41;26.00;54.20
12223;DHT22;6174;49.058;8.524;2023-07-22T16:21:20;25.90;54.40
12223;DHT22;6174;49.058;8.524;2023-07-22T16:28:45;26.10;54.30
12223;DHT22;6174;49.058;8.524;2023-07-22T16:29:26;26.10;53.40
12223;DHT22;6174;49.058;8.524;2023-07-22T16:32:13;26.10;53.60
12223;DHT22;6174;49.058;8.524;2023-07-22T16:34:57;26.00;53.70
12223;DHT22;6174;49.058;8.524;2023-07-22T16:37:54;26.00;54.00
12223;DHT22;6174;49.058;8.524;2023-07-22T16:43:27;25.90;55.00
12223;DHT22;6174;49.058;8.524;2023-07-22T16:48:39;26.10;54.60
12223;DHT22;6174;49.058;8.524;2023-07-22T16:51:10;26.00;55.40
12223;DHT22;6174;49.058;8.524;2023-07-22T16:53:39;25.90;55.70
12223;DHT22;6174;49.058;8.524;2023-07-22T16:56:14;25.90;55.40
12223;DHT22;6174;49.058;8.524;2023-07-22T16:58:41;26.00;54.90
12223;DHT22;6174;49.058;8.524;2023-07-22T17:01:08;26.10;54.60
12223;DHT22;6174;49.058;8.524;2023-07-22T17:03:35;26.10;54.60
12223;DHT22;6174;49.058;8.524;2023-07-22T17:06:04;26.10;55.60
12223;DHT22;6174;49.058;8.524;2023-07-22T17:08:37;26.00;55.70
12223;DHT22;6174;49.058;8.524;2023-07-22T17:11:04;26.00;55.10
12223;DHT22;6174;49.058;8.524;2023-07-22T17:13:31;25.90;55.90
12223;DHT22;6174;49.058;8.524;2023-07-22T17:15:58;25.80;55.60
12223;DHT22;6174;49.058;8.524;2023-07-22T17:18:25;25.80;55.40
12223;DHT22;6174;49.058;8.524;2023-07-22T17:20:52;25.80;55.80
12223;DHT22;6174;49.058;8.524;2023-07-22T17:23:20;25.80;55.90
12223;DHT22;6174;49.058;8.524;2023-07-22T17:26:17;25.70;56.20
12223;DHT22;6174;49.058;8.524;2023-07-22T17:29:11;25.80;55.90
12223;DHT22;6174;49.058;8.524;2023-07-22T17:31:40;25.70;56.60
12223;DHT22;6174;49.058;8.524;2023-07-22T17:34:07;25.70;55.60
12223;DHT22;6174;49.058;8.524;2023-07-22T17:36:34;25.70;56.10
12223;DHT22;6174;49.058;8.524;2023-07-22T17:39:04;25.60;56.50
12223;DHT22;6174;49.058;8.524;2023-07-22T17:41:32;25.50;57.20
12223;DHT22;6174;49.058;8.524;2023-07-22T17:43:59;25.50;56.50
12223;DHT22;6174;49.058;8.524;2023-07-22T17:46:26;25.50;55.80
12223;DHT22;6174;49.058;8.524;2023-07-22T17:48:53;25.50;56.70
12223;DHT22;6174;49.058;8.524;2023-07-22T17:51:21;25.60;55.20
12223;DHT22;6174;49.058;8.524;2023-07-22T17:53:48;25.60;54.90
12223;DHT22;6174;49.058;8.524;2023-07-22T17:56:15;25.60;54.80
12223;DHT22;6174;49.058;8.524;2023-07-22T17:58:43;25.60;55.70
12223;DHT22;6174;49.058;8.524;2023-07-22T18:01:10;25.50;55.50
12223;DHT22;6174;49.058;8.524;2023-07-22T18:03:36;25.50;54.80
12223;DHT22;6174;49.058;8.524;2023-07-22T18:06:03;25.50;54.90
12223;DHT22;6174;49.058;8.524;2023-07-22T18:08:30;25.50;55.60
12223;DHT22;6174;49.058;8.524;2023-07-22T18:10:57;25.40;55.00
12223;DHT22;6174;49.058;8.524;2023-07-22T18:13:24;25.40;55.20
12223;DHT22;6174;49.058;8.524;2023-07-22T18:15:52;25.40;55.30
12223;DHT22;6174;49.058;8.524;2023-07-22T18:18:19;25.40;56.40
12223;DHT22;6174;49.058;8.524;2023-07-22T18:20:45;25.30;56.20
12223;DHT22;6174;49.058;8.524;2023-07-22T18:23:12;25.30;56.80
12223;DHT22;6174;49.058;8.524;2023-07-22T18:25:39;25.20;58.30
12223;DHT22;6174;49.058;8.524;2023-07-22T18:28:06;25.20;57.40
12223;DHT22;6174;49.058;8.524;2023-07-22T18:30:33;25.10;57.70
12223;DHT22;6174;49.058;8.524;2023-07-22T18:33:01;25.00;57.80
12223;DHT22;6174;49.058;8.524;2023-07-22T18:35:36;24.90;59.10
12223;DHT22;6174;49.058;8.524;2023-07-22T18:38:03;24.80;59.80
12223;DHT22;6174;49.058;8.524;2023-07-22T18:40:30;24.80;60.20
12223;DHT22;6174;49.058;8.524;2023-07-22T18:42:56;24.60;60.50
12223;DHT22;6174;49.058;8.524;2023-07-22T18:45:24;24.50;59.90
12223;DHT22;6174;49.058;8.524;2023-07-22T18:47:50;24.40;59.00
12223;DHT22;6174;49.058;8.524;2023-07-22T18:50:17;24.20;60.30
12223;DHT22;6174;49.058;8.524;2023-07-22T18:52:45;24.20;62.50
12223;DHT22;6174;49.058;8.524;2023-07-22T18:55:12;24.10;62.70
12223;DHT22;6174;49.058;8.524;2023-07-22T18:57:39;24.00;63.20
12223;DHT22;6174;49.058;8.524;2023-07-22T19:00:06;23.80;62.60
12223;DHT22;6174;49.058;8.524;2023-07-22T19:02:33;23.80;64.60
12223;DHT22;6174;49.058;8.524;2023-07-22T19:05:00;23.70;64.10
12223;DHT22;6174;49.058;8.524;2023-07-22T19:07:27;23.60;63.90
12223;DHT22;6174;49.058;8.524;2023-07-22T19:09:55;23.50;64.80
12223;DHT22;6174;49.058;8.524;2023-07-22T19:12:22;23.50;64.80
12223;DHT22;6174;49.058;8.524;2023-07-22T19:14:49;23.40;65.30
12223;DHT22;6174;49.058;8.524;2023-07-22T19:17:17;23.40;66.50
12223;DHT22;6174;49.058;8.524;2023-07-22T19:19:43;23.20;66.10
12223;DHT22;6174;49.058;8.524;2023-07-22T19:22:10;23.20;67.30
12223;DHT22;6174;49.058;8.524;2023-07-22T19:24:37;23.10;66.50
12223;DHT22;6174;49.058;8.524;2023-07-22T19:27:06;23.10;67.80
12223;DHT22;6174;49.058;8.524;2023-07-22T19:29:32;23.00;67.70
12223;DHT22;6174;49.058;8.524;2023-07-22T19:31:59;22.90;68.40
12223;DHT22;6174;49.058;8.524;2023-07-22T19:34:26;22.90;67.60
12223;DHT22;6174;49.058;8.524;2023-07-22T19:36:52;22.80;69.20
12223;DHT22;6174;49.058;8.524;2023-07-22T19:39:19;22.70;68.30
12223;DHT22;6174;49.058;8.524;2023-07-22T19:41:46;22.70;68.90
12223;DHT22;6174;49.058;8.524;2023-07-22T19:44:14;22.70;69.70
12223;DHT22;6174;49.058;8.524;2023-07-22T19:46:41;22.60;70.10
12223;DHT22;6174;49.058;8.524;2023-07-22T19:49:08;22.60;67.80
12223;DHT22;6174;49.058;8.524;2023-07-22T19:51:34;22.50;67.80
12223;DHT22;6174;49.058;8.524;2023-07-22T19:54:01;22.50;67.10
12223;DHT22;6174;49.058;8.524;2023-07-22T19:56:28;22.50;67.50
12223;DHT22;6174;49.058;8.524;2023-07-22T19:58:55;22.40;68.10
12223;DHT22;6174;49.058;8.524;2023-07-22T20:01:23;22.40;68.00
12223;DHT22;6174;49.058;8.524;2023-07-22T20:03:50;22.40;67.90
12223;DHT22;6174;49.058;8.524;2023-07-22T20:06:17;22.40;68.30
12223;DHT22;6174;49.058;8.524;2023-07-22T20:08:43;22.40;68.70
12223;DHT22;6174;49.058;8.524;2023-07-22T20:11:12;22.40;68.70
12223;DHT22;6174;49.058;8.524;2023-07-22T20:13:39;22.40;69.90
12223;DHT22;6174;49.058;8.524;2023-07-22T20:16:06;22.40;69.30
12223;DHT22;6174;49.058;8.524;2023-07-22T20:18:34;22.30;69.10
12223;DHT22;6174;49.058;8.524;2023-07-22T20:21:02;22.40;69.30
12223;DHT22;6174;49.058;8.524;2023-07-22T20:23:28;22.30;69.30
12223;DHT22;6174;49.058;8.524;2023-07-22T20:25:55;22.30;70.30
12223;DHT22;6174;49.058;8.524;2023-07-22T20:28:22;22.20;70.30
12223;DHT22;6174;49.058;8.524;2023-07-22T20:30:49;22.30;70.00
12223;DHT22;6174;49.058;8.524;2023-07-22T20:33:16;22.20;69.80
12223;DHT22;6174;49.058;8.524;2023-07-22T20:35:44;22.10;70.10
12223;DHT22;6174;49.058;8.524;2023-07-22T20:38:11;22.10;70.40
12223;DHT22;6174;49.058;8.524;2023-07-22T20:40:38;22.10;70.80
12223;DHT22;6174;49.058;8.524;2023-07-22T20:43:05;22.00;70.70
12223;DHT22;6174;49.058;8.524;2023-07-22T20:45:32;22.00;70.80
12223;DHT22;6174;49.058;8.524;2023-07-22T20:47:58;22.00;71.00
12223;DHT22;6174;49.058;8.524;2023-07-22T20:50:25;21.90;71.20
12223;DHT22;6174;49.058;8.524;2023-07-22T20:52:53;21.90;71.60
12223;DHT22;6174;49.058;8.524;2023-07-22T20:55:20;21.90;71.90
12223;DHT22;6174;49.058;8.524;2023-07-22T20:57:47;21.80;72.20
12223;DHT22;6174;49.058;8.524;2023-07-22T21:00:14;21.80;72.90
12223;DHT22;6174;49.058;8.524;2023-07-22T21:02:41;21.70;73.30
12223;DHT22;6174;49.058;8.524;2023-07-22T21:05:08;21.70;73.50
12223;DHT22;6174;49.058;8.524;2023-07-22T21:07:37;21.60;73.70
12223;DHT22;6174;49.058;8.524;2023-07-22T21:10:06;21.60;73.80
12223;DHT22;6174;49.058;8.524;2023-07-22T21:12:33;21.50;73.30
12223;DHT22;6174;49.058;8.524;2023-07-22T21:14:59;21.50;73.20
12223;DHT22;6174;49.058;8.524;2023-07-22T21:17:26;21.50;73.30
12223;DHT22;6174;49.058;8.524;2023-07-22T21:19:53;21.50;74.20
12223;DHT22;6174;49.058;8.524;2023-07-22T21:22:20;21.40;73.20
12223;DHT22;6174;49.058;8.524;2023-07-22T21:24:46;21.40;73.40
12223;DHT22;6174;49.058;8.524;2023-07-22T21:27:15;21.30;73.30
12223;DHT22;6174;49.058;8.524;2023-07-22T21:29:42;21.40;73.50
12223;DHT22;6174;49.058;8.524;2023-07-22T21:32:11;21.40;73.80
12223;DHT22;6174;49.058;8.524;2023-07-22T21:34:38;21.40;74.00
12223;DHT22;6174;49.058;8.524;2023-07-22T21:37:04;21.30;74.20
12223;DHT22;6174;49.058;8.524;2023-07-22T21:39:31;21.30;74.30
12223;DHT22;6174;49.058;8.524;2023-07-22T21:41:58;21.30;74.30
12223;DHT22;6174;49.058;8.524;2023-07-22T21:44:29;21.20;73.80
12223;DHT22;6174;49.058;8.524;2023-07-22T21:46:56;21.30;74.10
12223;DHT22;6174;49.058;8.524;2023-07-22T21:49:23;21.20;74.00
12223;DHT22;6174;49.058;8.524;2023-07-22T21:51:50;21.20;74.40
12223;DHT22;6174;49.058;8.524;2023-07-22T21:54:16;21.20;74.60
12223;DHT22;6174;49.058;8.524;2023-07-22T21:56:44;21.20;75.00
12223;DHT22;6174;49.058;8.524;2023-07-22T21:59:10;21.10;75.00
12223;DHT22;6174;49.058;8.524;2023-07-22T22:01:40;21.10;76.10
12223;DHT22;6174;49.058;8.524;2023-07-22T22:04:07;21.30;75.30
12223;DHT22;6174;49.058;8.524;2023-07-22T22:06:35;21.10;75.30
12223;DHT22;6174;49.058;8.524;2023-07-22T22:09:07;21.00;75.40
12223;DHT22;6174;49.058;8.524;2023-07-22T22:11:40;20.90;76.00
12223;DHT22;6174;49.058;8.524;2023-07-22T22:14:10;20.90;75.90
12223;DHT22;6174;49.058;8.524;2023-07-22T22:16:36;20.90;76.10
12223;DHT22;6174;49.058;8.524;2023-07-22T22:19:05;20.80;76.20
12223;DHT22;6174;49.058;8.524;2023-07-22T22:21:32;20.80;76.10
12223;DHT22;6174;49.058;8.524;2023-07-22T22:24:01;20.70;76.20
12223;DHT22;6174;49.058;8.524;2023-07-22T22:26:28;20.80;76.30
12223;DHT22;6174;49.058;8.524;2023-07-22T22:28:56;20.80;76.70
